Lidderdale, IA (51452)

11:47 PM CST on January 22, 2018 (GMT -0600)
Onken Ag Services | | Change Station
Active Advisory: Winter Weather Advisory

Elev 1217 ft 42.15 °N, 94.81 °W | Updated 13 minutes ago

Overcast
Overcast
28.8 °F
Feels Like 19 °F
N
12.0
Wind Variable Wind from NNW
Gusts 24.0 mph

Today
High -- | Low -- °F
--% Chance of Precip.
Yesterday
High -- | Low -- °F
Precip. -- in
Pressure 29.78 in
Visibility 9.0 miles
Clouds Overcast 1300 ft
Windchill 19 °F
Dew Point 28 °F
Humidity 95%
Rainfall 0.33 in
Snow Depth Not available.
7:40 AM 5:21 PM
Waxing Crescent, 33% visible
METAR KCIN 230535Z AUTO 35020G26KT 9SM OVC013 M01/M02 A2978 RMK AO2
Pressure 29.78 in
Visibility 9.0 miles
Clouds Overcast 1300 ft
Windchill 19 °F
Dew Point 28 °F
Humidity 95%
Rainfall 0.33 in
Snow Depth Not available.
7:40 AM 5:21 PM
Waxing Crescent, 33% visible
METAR KCIN 230535Z AUTO 35020G26KT 9SM OVC013 M01/M02 A2978 RMK AO2

Get Your Daily Forecast Email!

Thanks for signing up!

Be on the lookout for a verification email in your inbox.

You'll start receiving severe weather alerts in your inbox..

×

10-Day Weather Forecast

Almanac

Astronomy

Jan. 22, 2018 Rise Set
Actual Time
Civil Twilight
Nautical Twilight
Astronomical Twilight
Moon
Length of Visible Light
Length of Day
Tomorrow will be .
, % of the Moon is Illuminated

Today's Extremes

State Highs State Lows

Community

WunderPhotos

Category 6

Welcome to Category 6. This is the collective home for Weather Underground's featured writeups by Dr. Jeff Masters (right), Bob Henson (left), Chris Burt, and other regular contributors.

Nearby

Air Quality

  Air Quality AQ Index Pollutant
Not available.

Snow Depth

Station Depth Elevation

Earthquake Activity

City Distance Mag. Time & Date
Minimum magnitude displayed is 2.5.

Coastal Water Temperatures

Place Temperature

Stations

Nearby Weather Stations

Station Location Temp. Windchill Dew Point Humidity Wind Precip. Elev Updated Type
                   

Watches & Warnings

Winter Weather Advisory
Issued: 11:40 PM CST Jan. 22, 2018 – National Weather Service

... Winter Weather Advisory will expire at midnight CST tonight...

Some light snow will persist into the early morning hours, however
any additional accumulation will be under an inch. Travel will
remain difficult at times, although overall conditions should
improve later tonight as winds continue to diminish and snow
tapers off.